Lewistown Municipal Airport
KLWT : now visible

Airfield :











YOU CAN JOIN US ON...

 
LOGIN :

Register | Disclaimer

   EN    FR    IT 

 









Legend :    VFR   Marginal VFR   IFR   Intensive IFR   Very Intensive IFR
Visi :
Ceiling :
>= 8 km
>= 3000ft
5 to 8 km
1000 to 3000 ft
1500m to 5 km
500 to 1000 ft
800 to 1500m
200 to 500 ft
< 800m
< 200 ft
Symbols :   Thunderstorms  Fog  Heavy snow  Heavy precipitations  Wind > 20 kt







- Airport Elevation : 4170 ft
- IATA code : LWT


KLWT - Lewistown Municipal

CURRENT METAR :
  • 201954Z AUTO 29006KT 10SM -RA FEW070 OVC100 11/07 A2987 RMK AO2 SLP108 P0001 T01110072

EXPIRED METARs :
  • 201854Z AUTO 24003KT 10SM -RA BKN065 OVC085 12/07 A2991 RMK AO2 RAB27 SLP116 P0000 T01170072
  • 201754Z AUTO 00000KT 10SM SCT070 13/06 A2990 RMK AO2 SLP114 T01280056 10128 20078 50002

TAF KLWT
Valid from the 20 at 18:00 until the 21 at 18:00 UTC


201744Z 2018/2118 VRB06KT 6SM BR VCSH SCT035 BKN060
FM202100 32007KT 6SM -RA SCT026 OVC045
TEMPO 2021/2101 4SM RA BKN026 BKN030
FM210400 28009KT 6SM -RA SCT019 OVC028
FM211200 29008KT P6SM SCT019 BKN025
PROB30 2112/2114 4SM -RA BKN019
FM211600 29008KT P6SM SCT019 BKN035
No reported NOTAMs for that airfield.



MET'MAP, your aeronautical weather chart ! - Copyright ORBIFLY December 2007 - Disclaimer

ORBIFLY MET'MAP TEAM :

Programming & Development : Alexandra Zaïnal
Concept & Development : Baudouin d'Aumeries
Co-Development & Prog : Marc-Olivier Méhu
Technical & hardware support : Manuel Goepfert

Contact : metmap@orbifly.com




SOURCES & CREDITS :

   NOAA       Earth
Advisory